sensor_id;sensor_type;location;lat;lon;timestamp;pressure;altitude;pressure_sealevel;temperature;humidity
68320;BME280;55168;51.120;17.024;2023-05-12T00:00:00;100260;;;11.6;100.0
68320;BME280;55168;51.120;17.024;2023-05-12T00:01:00;100260;;;11.6;100.0
68320;BME280;55168;51.120;17.024;2023-05-12T00:02:00;100250;;;11.6;100.0
68320;BME280;55168;51.120;17.024;2023-05-12T00:03:00;100250;;;11.6;100.0
68320;BME280;55168;51.120;17.024;2023-05-12T00:04:00;100250;;;11.5;100.0
68320;BME280;55168;51.120;17.024;2023-05-12T00:05:00;100260;;;11.5;100.0
68320;BME280;55168;51.120;17.024;2023-05-12T00:06:00;100260;;;11.6;100.0
68320;BME280;55168;51.120;17.024;2023-05-12T00:07:00;100250;;;11.6;100.0
68320;BME280;55168;51.120;17.024;2023-05-12T00:08:00;100260;;;11.5;100.0
68320;BME280;55168;51.120;17.024;2023-05-12T00:09:00;100250;;;11.5;100.0
68320;BME280;55168;51.120;17.024;2023-05-12T00:10:00;100260;;;11.5;100.0
68320;BME280;55168;51.120;17.024;2023-05-12T00:11:00;100250;;;11.4;100.0
68320;BME280;55168;51.120;17.024;2023-05-12T00:12:00;100260;;;11.4;100.0
68320;BME280;55168;51.120;17.024;2023-05-12T00:13:00;100260;;;11.4;100.0
68320;BME280;55168;51.120;17.024;2023-05-12T00:14:00;100260;;;11.4;100.0
68320;BME280;55168;51.120;17.024;2023-05-12T00:15:00;100250;;;11.4;100.0
68320;BME280;55168;51.120;17.024;2023-05-12T00:16:00;100250;;;11.4;100.0
68320;BME280;55168;51.120;17.024;2023-05-12T00:17:01;100250;;;11.4;100.0
68320;BME280;55168;51.120;17.024;2023-05-12T00:18:00;100260;;;11.4;100.0
68320;BME280;55168;51.120;17.024;2023-05-12T00:19:00;100250;;;11.4;100.0
68320;BME280;55168;51.120;17.024;2023-05-12T00:20:00;100260;;;11.4;100.0
68320;BME280;55168;51.120;17.024;2023-05-12T00:21:00;100260;;;11.3;100.0
68320;BME280;55168;51.120;17.024;2023-05-12T00:22:00;100260;;;11.3;100.0
68320;BME280;55168;51.120;17.024;2023-05-12T00:23:00;100250;;;11.3;100.0
68320;BME280;55168;51.120;17.024;2023-05-12T00:24:00;100250;;;11.3;100.0
68320;BME280;55168;51.120;17.024;2023-05-12T00:25:00;100260;;;11.2;100.0
68320;BME280;55168;51.120;17.024;2023-05-12T00:26:00;100250;;;11.2;100.0
68320;BME280;55168;51.120;17.024;2023-05-12T00:27:00;100250;;;11.2;100.0
68320;BME280;55168;51.120;17.024;2023-05-12T00:28:00;100250;;;11.3;100.0
68320;BME280;55168;51.120;17.024;2023-05-12T00:29:00;100250;;;11.2;100.0
68320;BME280;55168;51.120;17.024;2023-05-12T00:30:00;100250;;;11.2;100.0
68320;BME280;55168;51.120;17.024;2023-05-12T00:31:01;100250;;;11.2;100.0
68320;BME280;55168;51.120;17.024;2023-05-12T00:32:00;100250;;;11.2;100.0
68320;BME280;55168;51.120;17.024;2023-05-12T00:33:00;100250;;;11.2;100.0
68320;BME280;55168;51.120;17.024;2023-05-12T00:34:00;100250;;;11.2;100.0
68320;BME280;55168;51.120;17.024;2023-05-12T00:35:00;100260;;;11.2;100.0
68320;BME280;55168;51.120;17.024;2023-05-12T00:36:00;100260;;;11.2;100.0
68320;BME280;55168;51.120;17.024;2023-05-12T00:37:00;100250;;;11.2;100.0
68320;BME280;55168;51.120;17.024;2023-05-12T00:38:00;100260;;;11.1;100.0
68320;BME280;55168;51.120;17.024;2023-05-12T00:39:00;100250;;;11.1;100.0
68320;BME280;55168;51.120;17.024;2023-05-12T00:40:00;100250;;;11.1;100.0
68320;BME280;55168;51.120;17.024;2023-05-12T00:41:00;100260;;;11.1;100.0
68320;BME280;55168;51.120;17.024;2023-05-12T00:42:00;100260;;;11.1;100.0
68320;BME280;55168;51.120;17.024;2023-05-12T00:43:00;100260;;;11.1;100.0
68320;BME280;55168;51.120;17.024;2023-05-12T00:44:00;100260;;;11.1;100.0
68320;BME280;55168;51.120;17.024;2023-05-12T00:45:00;100250;;;11.1;100.0
68320;BME280;55168;51.120;17.024;2023-05-12T00:46:01;100260;;;11.0;100.0
68320;BME280;55168;51.120;17.024;2023-05-12T00:47:00;100260;;;11.0;100.0
68320;BME280;55168;51.120;17.024;2023-05-12T00:48:00;100260;;;11.0;100.0
68320;BME280;55168;51.120;17.024;2023-05-12T00:49:00;100260;;;11.0;100.0
68320;BME280;55168;51.120;17.024;2023-05-12T00:50:01;100260;;;10.9;100.0
68320;BME280;55168;51.120;17.024;2023-05-12T00:51:01;100260;;;10.9;100.0
68320;BME280;55168;51.120;17.024;2023-05-12T00:52:00;100260;;;11.0;100.0
68320;BME280;55168;51.120;17.024;2023-05-12T00:53:00;100260;;;11.0;100.0
68320;BME280;55168;51.120;17.024;2023-05-12T00:54:00;100260;;;10.9;100.0
68320;BME280;55168;51.120;17.024;2023-05-12T00:55:00;100270;;;10.9;100.0
68320;BME280;55168;51.120;17.024;2023-05-12T00:56:00;100270;;;10.9;100.0
68320;BME280;55168;51.120;17.024;2023-05-12T00:57:00;100260;;;10.9;100.0
68320;BME280;55168;51.120;17.024;2023-05-12T00:58:00;100260;;;10.8;100.0
68320;BME280;55168;51.120;17.024;2023-05-12T00:59:00;100270;;;10.8;100.0
68320;BME280;55168;51.120;17.024;2023-05-12T01:00:00;100270;;;10.9;100.0
68320;BME280;55168;51.120;17.024;2023-05-12T01:01:00;100270;;;10.9;100.0
68320;BME280;55168;51.120;17.024;2023-05-12T01:02:00;100270;;;10.9;100.0
68320;BME280;55168;51.120;17.024;2023-05-12T01:03:00;100260;;;10.8;100.0
68320;BME280;55168;51.120;17.024;2023-05-12T01:04:00;100260;;;10.8;100.0
68320;BME280;55168;51.120;17.024;2023-05-12T01:05:00;100270;;;10.9;100.0
68320;BME280;55168;51.120;17.024;2023-05-12T01:07:03;100270;;;10.8;100.0
68320;BME280;55168;51.120;17.024;2023-05-12T01:08:00;100270;;;10.8;100.0
68320;BME280;55168;51.120;17.024;2023-05-12T01:09:00;100270;;;10.8;100.0
68320;BME280;55168;51.120;17.024;2023-05-12T01:10:00;100270;;;10.8;100.0
68320;BME280;55168;51.120;17.024;2023-05-12T01:11:00;100270;;;10.7;100.0
68320;BME280;55168;51.120;17.024;2023-05-12T01:12:00;100270;;;10.8;100.0
68320;BME280;55168;51.120;17.024;2023-05-12T01:13:00;100270;;;10.8;100.0
68320;BME280;55168;51.120;17.024;2023-05-12T01:14:00;100270;;;10.8;100.0
68320;BME280;55168;51.120;17.024;2023-05-12T01:15:00;100270;;;10.8;100.0
68320;BME280;55168;51.120;17.024;2023-05-12T01:16:01;100280;;;10.7;100.0
68320;BME280;55168;51.120;17.024;2023-05-12T01:17:01;100270;;;10.7;100.0
68320;BME280;55168;51.120;17.024;2023-05-12T01:18:00;100280;;;10.7;100.0
68320;BME280;55168;51.120;17.024;2023-05-12T01:19:00;100270;;;10.7;100.0
68320;BME280;55168;51.120;17.024;2023-05-12T01:20:01;100270;;;10.7;100.0
68320;BME280;55168;51.120;17.024;2023-05-12T01:21:00;100270;;;10.7;100.0
68320;BME280;55168;51.120;17.024;2023-05-12T01:22:00;100270;;;10.7;100.0
68320;BME280;55168;51.120;17.024;2023-05-12T01:23:00;100270;;;10.6;100.0
68320;BME280;55168;51.120;17.024;2023-05-12T01:24:01;100270;;;10.6;100.0
68320;BME280;55168;51.120;17.024;2023-05-12T01:25:01;100280;;;10.6;100.0
68320;BME280;55168;51.120;17.024;2023-05-12T01:26:02;100270;;;10.6;100.0
68320;BME280;55168;51.120;17.024;2023-05-12T01:27:00;100270;;;10.6;100.0
68320;BME280;55168;51.120;17.024;2023-05-12T01:28:00;100270;;;10.5;100.0
68320;BME280;55168;51.120;17.024;2023-05-12T01:29:00;100270;;;10.5;100.0
68320;BME280;55168;51.120;17.024;2023-05-12T01:30:01;100270;;;10.5;100.0
68320;BME280;55168;51.120;17.024;2023-05-12T01:31:00;100270;;;10.5;100.0
68320;BME280;55168;51.120;17.024;2023-05-12T01:32:00;100270;;;10.5;100.0
68320;BME280;55168;51.120;17.024;2023-05-12T01:33:00;100270;;;10.5;100.0
68320;BME280;55168;51.120;17.024;2023-05-12T01:34:00;100280;;;10.5;100.0
68320;BME280;55168;51.120;17.024;2023-05-12T01:35:00;100270;;;10.5;100.0
68320;BME280;55168;51.120;17.024;2023-05-12T01:36:00;100280;;;10.4;100.0
68320;BME280;55168;51.120;17.024;2023-05-12T01:37:00;100280;;;10.4;100.0
68320;BME280;55168;51.120;17.024;2023-05-12T01:38:00;100280;;;10.4;100.0
68320;BME280;55168;51.120;17.024;2023-05-12T01:39:00;100280;;;10.4;100.0
68320;BME280;55168;51.120;17.024;2023-05-12T01:40:00;100280;;;10.3;100.0
68320;BME280;55168;51.120;17.024;2023-05-12T01:41:00;100280;;;10.3;100.0
68320;BME280;55168;51.120;17.024;2023-05-12T01:42:00;100280;;;10.3;100.0
68320;BME280;55168;51.120;17.024;2023-05-12T01:43:00;100270;;;10.3;100.0
68320;BME280;55168;51.120;17.024;2023-05-12T01:44:00;100270;;;10.3;100.0
68320;BME280;55168;51.120;17.024;2023-05-12T01:45:00;100280;;;10.3;100.0
68320;BME280;55168;51.120;17.024;2023-05-12T01:46:00;100280;;;10.2;100.0
68320;BME280;55168;51.120;17.024;2023-05-12T01:47:00;100280;;;10.2;100.0
68320;BME280;55168;51.120;17.024;2023-05-12T01:48:00;100290;;;10.2;100.0
68320;BME280;55168;51.120;17.024;2023-05-12T01:49:00;100290;;;10.2;100.0
68320;BME280;55168;51.120;17.024;2023-05-12T01:50:00;100280;;;10.2;100.0
68320;BME280;55168;51.120;17.024;2023-05-12T01:51:00;100280;;;10.2;100.0
68320;BME280;55168;51.120;17.024;2023-05-12T01:52:00;100280;;;10.2;100.0
68320;BME280;55168;51.120;17.024;2023-05-12T01:53:00;100290;;;10.2;100.0
68320;BME280;55168;51.120;17.024;2023-05-12T01:54:00;100280;;;10.1;100.0
68320;BME280;55168;51.120;17.024;2023-05-12T01:55:00;100290;;;10.2;100.0
68320;BME280;55168;51.120;17.024;2023-05-12T01:56:00;100280;;;10.2;100.0
68320;BME280;55168;51.120;17.024;2023-05-12T01:57:00;100280;;;10.1;100.0
68320;BME280;55168;51.120;17.024;2023-05-12T01:58:00;100290;;;10.1;100.0
68320;BME280;55168;51.120;17.024;2023-05-12T01:59:00;100290;;;10.1;100.0
68320;BME280;55168;51.120;17.024;2023-05-12T02:00:00;100280;;;10.1;100.0
68320;BME280;55168;51.120;17.024;2023-05-12T02:01:00;100290;;;10.1;100.0
68320;BME280;55168;51.120;17.024;2023-05-12T02:02:00;100280;;;10.1;100.0
68320;BME280;55168;51.120;17.024;2023-05-12T02:03:00;100290;;;10.1;100.0
68320;BME280;55168;51.120;17.024;2023-05-12T02:04:00;100290;;;10.0;100.0
68320;BME280;55168;51.120;17.024;2023-05-12T02:05:00;100290;;;10.0;100.0
68320;BME280;55168;51.120;17.024;2023-05-12T02:06:00;100290;;;10.0;100.0
68320;BME280;55168;51.120;17.024;2023-05-12T02:07:00;100300;;;10.0;100.0
68320;BME280;55168;51.120;17.024;2023-05-12T02:08:00;100290;;;10.0;100.0
68320;BME280;55168;51.120;17.024;2023-05-12T02:09:00;100290;;;10.0;100.0
68320;BME280;55168;51.120;17.024;2023-05-12T02:10:00;100290;;;10.0;100.0
68320;BME280;55168;51.120;17.024;2023-05-12T02:11:04;100290;;;9.9;100.0
68320;BME280;55168;51.120;17.024;2023-05-12T02:12:00;100290;;;9.9;100.0
68320;BME280;55168;51.120;17.024;2023-05-12T02:13:00;100290;;;9.9;100.0
68320;BME280;55168;51.120;17.024;2023-05-12T02:14:00;100290;;;9.9;100.0
68320;BME280;55168;51.120;17.024;2023-05-12T02:15:00;100290;;;9.9;100.0
68320;BME280;55168;51.120;17.024;2023-05-12T02:16:00;100290;;;9.9;100.0
68320;BME280;55168;51.120;17.024;2023-05-12T02:17:00;100290;;;9.9;100.0
68320;BME280;55168;51.120;17.024;2023-05-12T02:18:00;100290;;;9.9;100.0
68320;BME280;55168;51.120;17.024;2023-05-12T02:19:00;100280;;;9.8;100.0
68320;BME280;55168;51.120;17.024;2023-05-12T02:20:00;100290;;;9.8;100.0
68320;BME280;55168;51.120;17.024;2023-05-12T02:21:00;100290;;;9.8;100.0
68320;BME280;55168;51.120;17.024;2023-05-12T02:22:00;100280;;;9.8;100.0
68320;BME280;55168;51.120;17.024;2023-05-12T02:23:00;100280;;;9.8;100.0
68320;BME280;55168;51.120;17.024;2023-05-12T02:24:00;100290;;;9.7;100.0
68320;BME280;55168;51.120;17.024;2023-05-12T02:25:00;100290;;;9.8;100.0
68320;BME280;55168;51.120;17.024;2023-05-12T02:26:00;100280;;;9.7;100.0
68320;BME280;55168;51.120;17.024;2023-05-12T02:27:00;100280;;;9.7;100.0
68320;BME280;55168;51.120;17.024;2023-05-12T02:28:00;100290;;;9.7;100.0
68320;BME280;55168;51.120;17.024;2023-05-12T02:29:00;100290;;;9.7;100.0
68320;BME280;55168;51.120;17.024;2023-05-12T02:30:00;100290;;;9.7;100.0
68320;BME280;55168;51.120;17.024;2023-05-12T02:31:00;100290;;;9.7;100.0
68320;BME280;55168;51.120;17.024;2023-05-12T02:32:00;100290;;;9.7;100.0
68320;BME280;55168;51.120;17.024;2023-05-12T02:33:00;100290;;;9.7;100.0
68320;BME280;55168;51.120;17.024;2023-05-12T02:34:00;100290;;;9.6;100.0
68320;BME280;55168;51.120;17.024;2023-05-12T02:35:00;100290;;;9.6;100.0
68320;BME280;55168;51.120;17.024;2023-05-12T02:36:00;100290;;;9.6;100.0
68320;BME280;55168;51.120;17.024;2023-05-12T02:37:00;100290;;;9.6;100.0
68320;BME280;55168;51.120;17.024;2023-05-12T02:38:00;100290;;;9.6;100.0
68320;BME280;55168;51.120;17.024;2023-05-12T02:39:00;100290;;;9.6;100.0
68320;BME280;55168;51.120;17.024;2023-05-12T02:40:00;100290;;;9.6;100.0
68320;BME280;55168;51.120;17.024;2023-05-12T02:41:00;100290;;;9.5;100.0
68320;BME280;55168;51.120;17.024;2023-05-12T02:42:00;100290;;;9.5;100.0
68320;BME280;55168;51.120;17.024;2023-05-12T02:43:00;100290;;;9.5;100.0
68320;BME280;55168;51.120;17.024;2023-05-12T02:44:00;100290;;;9.5;100.0
68320;BME280;55168;51.120;17.024;2023-05-12T02:45:00;100290;;;9.5;100.0
68320;BME280;55168;51.120;17.024;2023-05-12T02:46:00;100290;;;9.5;100.0
68320;BME280;55168;51.120;17.024;2023-05-12T02:47:00;100290;;;9.4;100.0
68320;BME280;55168;51.120;17.024;2023-05-12T02:48:00;100290;;;9.4;100.0
68320;BME280;55168;51.120;17.024;2023-05-12T02:49:00;100290;;;9.4;100.0
68320;BME280;55168;51.120;17.024;2023-05-12T02:50:00;100290;;;9.4;100.0
68320;BME280;55168;51.120;17.024;2023-05-12T02:51:00;100290;;;9.4;100.0
68320;BME280;55168;51.120;17.024;2023-05-12T02:52:00;100290;;;9.4;100.0
68320;BME280;55168;51.120;17.024;2023-05-12T02:53:00;100290;;;9.4;100.0
68320;BME280;55168;51.120;17.024;2023-05-12T02:54:00;100290;;;9.4;100.0
68320;BME280;55168;51.120;17.024;2023-05-12T02:55:00;100290;;;9.4;100.0
68320;BME280;55168;51.120;17.024;2023-05-12T02:56:00;100290;;;9.4;100.0
68320;BME280;55168;51.120;17.024;2023-05-12T02:57:03;100290;;;9.3;100.0
68320;BME280;55168;51.120;17.024;2023-05-12T02:58:00;100290;;;9.3;100.0
68320;BME280;55168;51.120;17.024;2023-05-12T02:59:00;100290;;;9.3;100.0
68320;BME280;55168;51.120;17.024;2023-05-12T03:00:00;100290;;;9.3;100.0
68320;BME280;55168;51.120;17.024;2023-05-12T03:01:00;100290;;;9.3;100.0
68320;BME280;55168;51.120;17.024;2023-05-12T03:02:00;100290;;;9.3;100.0
68320;BME280;55168;51.120;17.024;2023-05-12T03:03:00;100300;;;9.3;100.0
68320;BME280;55168;51.120;17.024;2023-05-12T03:04:00;100290;;;9.3;100.0
68320;BME280;55168;51.120;17.024;2023-05-12T03:05:00;100290;;;9.3;100.0
68320;BME280;55168;51.120;17.024;2023-05-12T03:06:00;100290;;;9.2;100.0
68320;BME280;55168;51.120;17.024;2023-05-12T03:07:00;100300;;;9.2;100.0
68320;BME280;55168;51.120;17.024;2023-05-12T03:08:00;100300;;;9.2;100.0
68320;BME280;55168;51.120;17.024;2023-05-12T03:09:00;100300;;;9.2;100.0
68320;BME280;55168;51.120;17.024;2023-05-12T03:10:00;100300;;;9.2;100.0
68320;BME280;55168;51.120;17.024;2023-05-12T03:11:00;100300;;;9.2;100.0
68320;BME280;55168;51.120;17.024;2023-05-12T03:12:00;100290;;;9.2;100.0
68320;BME280;55168;51.120;17.024;2023-05-12T03:13:00;100300;;;9.2;100.0
68320;BME280;55168;51.120;17.024;2023-05-12T03:14:00;100300;;;9.2;100.0
68320;BME280;55168;51.120;17.024;2023-05-12T03:15:00;100300;;;9.2;100.0
68320;BME280;55168;51.120;17.024;2023-05-12T03:16:00;100300;;;9.2;100.0
68320;BME280;55168;51.120;17.024;2023-05-12T03:17:00;100300;;;9.2;100.0
68320;BME280;55168;51.120;17.024;2023-05-12T03:18:00;100300;;;9.2;100.0
68320;BME280;55168;51.120;17.024;2023-05-12T03:19:00;100300;;;9.2;100.0
68320;BME280;55168;51.120;17.024;2023-05-12T03:20:00;100300;;;9.1;100.0
68320;BME280;55168;51.120;17.024;2023-05-12T03:21:00;100300;;;9.1;100.0
68320;BME280;55168;51.120;17.024;2023-05-12T03:22:00;100300;;;9.1;100.0
68320;BME280;55168;51.120;17.024;2023-05-12T03:23:00;100300;;;9.1;100.0
68320;BME280;55168;51.120;17.024;2023-05-12T03:24:00;100300;;;9.1;100.0
68320;BME280;55168;51.120;17.024;2023-05-12T03:25:00;100300;;;9.1;100.0
68320;BME280;55168;51.120;17.024;2023-05-12T03:26:00;100300;;;9.1;100.0
68320;BME280;55168;51.120;17.024;2023-05-12T03:27:00;100300;;;9.1;100.0
68320;BME280;55168;51.120;17.024;2023-05-12T03:28:01;100300;;;9.1;100.0
68320;BME280;55168;51.120;17.024;2023-05-12T03:29:00;100300;;;9.1;100.0
68320;BME280;55168;51.120;17.024;2023-05-12T03:30:00;100300;;;9.1;100.0
68320;BME280;55168;51.120;17.024;2023-05-12T03:31:00;100300;;;9.1;100.0
68320;BME280;55168;51.120;17.024;2023-05-12T03:32:00;100300;;;9.1;100.0
68320;BME280;55168;51.120;17.024;2023-05-12T03:33:00;100300;;;9.1;100.0
68320;BME280;55168;51.120;17.024;2023-05-12T03:34:00;100300;;;9.1;100.0
68320;BME280;55168;51.120;17.024;2023-05-12T03:35:00;100310;;;9.1;100.0
68320;BME280;55168;51.120;17.024;2023-05-12T03:36:00;100300;;;9.1;100.0
68320;BME280;55168;51.120;17.024;2023-05-12T03:37:00;100300;;;9.2;100.0
68320;BME280;55168;51.120;17.024;2023-05-12T03:38:00;100310;;;9.2;100.0
68320;BME280;55168;51.120;17.024;2023-05-12T03:39:00;100300;;;9.2;100.0
68320;BME280;55168;51.120;17.024;2023-05-12T03:40:00;100310;;;9.2;100.0
68320;BME280;55168;51.120;17.024;2023-05-12T03:41:04;100310;;;9.2;100.0
68320;BME280;55168;51.120;17.024;2023-05-12T03:42:00;100300;;;9.2;100.0
68320;BME280;55168;51.120;17.024;2023-05-12T03:43:00;100300;;;9.2;100.0
68320;BME280;55168;51.120;17.024;2023-05-12T03:44:00;100310;;;9.2;100.0
68320;BME280;55168;51.120;17.024;2023-05-12T03:45:00;100310;;;9.2;100.0
68320;BME280;55168;51.120;17.024;2023-05-12T03:46:00;100310;;;9.2;100.0
68320;BME280;55168;51.120;17.024;2023-05-12T03:47:00;100310;;;9.2;100.0
68320;BME280;55168;51.120;17.024;2023-05-12T03:48:00;100310;;;9.2;100.0
68320;BME280;55168;51.120;17.024;2023-05-12T03:49:00;100310;;;9.2;100.0
68320;BME280;55168;51.120;17.024;2023-05-12T03:50:00;100310;;;9.2;100.0
68320;BME280;55168;51.120;17.024;2023-05-12T03:51:00;100310;;;9.2;100.0
68320;BME280;55168;51.120;17.024;2023-05-12T03:52:00;100320;;;9.2;100.0
68320;BME280;55168;51.120;17.024;2023-05-12T03:53:00;100320;;;9.2;100.0
68320;BME280;55168;51.120;17.024;2023-05-12T03:54:00;100320;;;9.2;100.0
68320;BME280;55168;51.120;17.024;2023-05-12T03:55:00;100320;;;9.2;100.0
68320;BME280;55168;51.120;17.024;2023-05-12T03:56:03;100320;;;9.2;100.0
68320;BME280;55168;51.120;17.024;2023-05-12T03:57:00;100320;;;9.2;100.0
68320;BME280;55168;51.120;17.024;2023-05-12T03:58:00;100330;;;9.2;100.0
68320;BME280;55168;51.120;17.024;2023-05-12T03:59:00;100320;;;9.2;100.0
68320;BME280;55168;51.120;17.024;2023-05-12T04:00:00;100320;;;9.2;100.0
68320;BME280;55168;51.120;17.024;2023-05-12T04:01:00;100320;;;9.2;100.0
68320;BME280;55168;51.120;17.024;2023-05-12T04:02:00;100320;;;9.2;100.0
68320;BME280;55168;51.120;17.024;2023-05-12T04:03:00;100320;;;9.2;100.0
68320;BME280;55168;51.120;17.024;2023-05-12T04:04:00;100320;;;9.2;100.0
68320;BME280;55168;51.120;17.024;2023-05-12T04:05:00;100330;;;9.2;100.0
68320;BME280;55168;51.120;17.024;2023-05-12T04:06:00;100320;;;9.2;100.0
68320;BME280;55168;51.120;17.024;2023-05-12T04:07:00;100330;;;9.2;100.0
68320;BME280;55168;51.120;17.024;2023-05-12T04:08:00;100330;;;9.2;100.0
68320;BME280;55168;51.120;17.024;2023-05-12T04:09:00;100330;;;9.2;100.0
68320;BME280;55168;51.120;17.024;2023-05-12T04:10:00;100330;;;9.3;100.0
68320;BME280;55168;51.120;17.024;2023-05-12T04:11:00;100330;;;9.3;100.0
68320;BME280;55168;51.120;17.024;2023-05-12T04:12:00;100330;;;9.4;100.0
68320;BME280;55168;51.120;17.024;2023-05-12T04:13:00;100320;;;9.3;100.0
68320;BME280;55168;51.120;17.024;2023-05-12T04:14:00;100320;;;9.3;100.0
68320;BME280;55168;51.120;17.024;2023-05-12T04:15:00;100330;;;9.3;100.0
68320;BME280;55168;51.120;17.024;2023-05-12T04:16:00;100320;;;9.3;100.0
68320;BME280;55168;51.120;17.024;2023-05-12T04:17:00;100320;;;9.3;100.0
68320;BME280;55168;51.120;17.024;2023-05-12T04:18:01;100330;;;9.3;100.0
68320;BME280;55168;51.120;17.024;2023-05-12T04:19:00;100330;;;9.3;100.0
68320;BME280;55168;51.120;17.024;2023-05-12T04:20:00;100330;;;9.4;100.0
68320;BME280;55168;51.120;17.024;2023-05-12T04:21:00;100330;;;9.5;100.0
68320;BME280;55168;51.120;17.024;2023-05-12T04:22:00;100340;;;9.5;100.0
68320;BME280;55168;51.120;17.024;2023-05-12T04:23:00;100330;;;9.5;100.0
68320;BME280;55168;51.120;17.024;2023-05-12T04:24:00;100340;;;9.6;100.0
68320;BME280;55168;51.120;17.024;2023-05-12T04:25:00;100330;;;9.5;100.0
68320;BME280;55168;51.120;17.024;2023-05-12T04:26:02;100340;;;9.6;100.0
68320;BME280;55168;51.120;17.024;2023-05-12T04:27:00;100330;;;9.6;100.0
68320;BME280;55168;51.120;17.024;2023-05-12T04:28:00;100340;;;9.8;100.0
68320;BME280;55168;51.120;17.024;2023-05-12T04:29:00;100330;;;9.8;100.0
68320;BME280;55168;51.120;17.024;2023-05-12T04:30:00;100340;;;9.8;100.0
68320;BME280;55168;51.120;17.024;2023-05-12T04:31:01;100340;;;9.8;100.0
68320;BME280;55168;51.120;17.024;2023-05-12T04:32:00;100340;;;9.9;100.0
68320;BME280;55168;51.120;17.024;2023-05-12T04:33:00;100350;;;9.9;100.0
68320;BME280;55168;51.120;17.024;2023-05-12T04:34:00;100350;;;9.9;100.0
68320;BME280;55168;51.120;17.024;2023-05-12T04:35:00;100350;;;9.9;100.0
68320;BME280;55168;51.120;17.024;2023-05-12T04:36:00;100350;;;9.8;100.0
68320;BME280;55168;51.120;17.024;2023-05-12T04:37:00;100350;;;9.8;100.0
68320;BME280;55168;51.120;17.024;2023-05-12T04:38:00;100350;;;9.9;100.0
68320;BME280;55168;51.120;17.024;2023-05-12T04:39:00;100340;;;10.0;100.0
68320;BME280;55168;51.120;17.024;2023-05-12T04:40:00;100350;;;10.1;100.0
68320;BME280;55168;51.120;17.024;2023-05-12T04:41:00;100350;;;10.1;100.0
68320;BME280;55168;51.120;17.024;2023-05-12T04:42:00;100350;;;10.2;100.0
68320;BME280;55168;51.120;17.024;2023-05-12T04:43:00;100360;;;10.2;100.0
68320;BME280;55168;51.120;17.024;2023-05-12T04:44:00;100350;;;10.2;100.0
68320;BME280;55168;51.120;17.024;2023-05-12T04:45:00;100350;;;10.4;100.0
68320;BME280;55168;51.120;17.024;2023-05-12T04:46:00;100350;;;10.6;100.0
68320;BME280;55168;51.120;17.024;2023-05-12T04:47:00;100350;;;10.8;100.0
68320;BME280;55168;51.120;17.024;2023-05-12T04:48:00;100350;;;10.8;100.0
68320;BME280;55168;51.120;17.024;2023-05-12T04:49:00;100350;;;10.8;100.0
68320;BME280;55168;51.120;17.024;2023-05-12T04:50:00;100350;;;10.8;100.0
68320;BME280;55168;51.120;17.024;2023-05-12T04:51:00;100350;;;10.8;100.0
68320;BME280;55168;51.120;17.024;2023-05-12T04:52:00;100350;;;11.1;100.0
68320;BME280;55168;51.120;17.024;2023-05-12T04:53:00;100350;;;11.0;100.0
68320;BME280;55168;51.120;17.024;2023-05-12T04:54:00;100350;;;11.1;100.0
68320;BME280;55168;51.120;17.024;2023-05-12T04:55:00;100360;;;11.2;100.0
68320;BME280;55168;51.120;17.024;2023-05-12T04:56:00;100350;;;11.2;100.0
68320;BME280;55168;51.120;17.024;2023-05-12T04:57:00;100360;;;11.3;100.0
68320;BME280;55168;51.120;17.024;2023-05-12T04:58:00;100360;;;11.4;100.0
68320;BME280;55168;51.120;17.024;2023-05-12T04:59:00;100350;;;11.5;100.0
68320;BME280;55168;51.120;17.024;2023-05-12T05:00:00;100360;;;11.6;100.0
68320;BME280;55168;51.120;17.024;2023-05-12T05:01:00;100360;;;11.6;100.0
68320;BME280;55168;51.120;17.024;2023-05-12T05:02:00;100360;;;11.4;100.0
68320;BME280;55168;51.120;17.024;2023-05-12T05:03:00;100360;;;11.3;100.0
68320;BME280;55168;51.120;17.024;2023-05-12T05:04:00;100360;;;11.0;100.0
68320;BME280;55168;51.120;17.024;2023-05-12T05:05:00;100360;;;11.2;100.0
68320;BME280;55168;51.120;17.024;2023-05-12T05:06:00;100360;;;11.4;100.0
68320;BME280;55168;51.120;17.024;2023-05-12T05:07:00;100360;;;11.4;100.0
68320;BME280;55168;51.120;17.024;2023-05-12T05:08:00;100360;;;11.4;100.0
68320;BME280;55168;51.120;17.024;2023-05-12T05:09:00;100360;;;11.2;100.0
68320;BME280;55168;51.120;17.024;2023-05-12T05:10:00;100360;;;11.2;100.0
68320;BME280;55168;51.120;17.024;2023-05-12T05:11:00;100370;;;11.4;100.0
68320;BME280;55168;51.120;17.024;2023-05-12T05:12:00;100370;;;11.2;100.0
68320;BME280;55168;51.120;17.024;2023-05-12T05:13:00;100370;;;11.2;100.0
68320;BME280;55168;51.120;17.024;2023-05-12T05:14:00;100360;;;11.3;100.0
68320;BME280;55168;51.120;17.024;2023-05-12T05:15:00;100370;;;11.1;100.0
68320;BME280;55168;51.120;17.024;2023-05-12T05:16:00;100370;;;11.2;100.0
68320;BME280;55168;51.120;17.024;2023-05-12T05:17:00;100370;;;11.4;100.0
68320;BME280;55168;51.120;17.024;2023-05-12T05:18:00;100370;;;11.7;100.0
68320;BME280;55168;51.120;17.024;2023-05-12T05:19:00;100370;;;11.8;100.0
68320;BME280;55168;51.120;17.024;2023-05-12T05:20:00;100370;;;11.8;100.0
68320;BME280;55168;51.120;17.024;2023-05-12T05:21:00;100370;;;11.7;100.0
68320;BME280;55168;51.120;17.024;2023-05-12T05:22:00;100380;;;11.9;100.0
68320;BME280;55168;51.120;17.024;2023-05-12T05:23:00;100370;;;12.1;100.0
68320;BME280;55168;51.120;17.024;2023-05-12T05:24:00;100370;;;11.7;100.0
68320;BME280;55168;51.120;17.024;2023-05-12T05:25:00;100370;;;11.6;100.0
68320;BME280;55168;51.120;17.024;2023-05-12T05:26:00;100370;;;11.3;100.0
68320;BME280;55168;51.120;17.024;2023-05-12T05:27:00;100370;;;11.2;100.0
68320;BME280;55168;51.120;17.024;2023-05-12T05:28:00;100370;;;11.4;100.0
68320;BME280;55168;51.120;17.024;2023-05-12T05:29:00;100360;;;11.6;100.0